createdAt,value
2023-02-19T00:20:15.270Z,101693.84
2023-02-19T00:34:16.497Z,101715.97
2023-02-19T00:37:55.519Z,101721.97
2023-02-19T00:52:38.110Z,101767.59
2023-02-19T01:55:21.599Z,101803.19
2023-02-19T01:58:17.879Z,101804.25
2023-02-19T02:00:47.893Z,101795.53
2023-02-19T02:03:50.533Z,101796.53
2023-02-19T02:07:17.372Z,101795.03
2023-02-19T02:10:16.498Z,101788.63
2023-02-19T02:13:20.386Z,101779.03
2023-02-19T02:16:54.068Z,101764.94
2023-02-19T02:28:08.229Z,101774.00
2023-02-19T02:31:17.147Z,101782.94
2023-02-19T02:33:47.492Z,101778.06
2023-02-19T02:36:21.817Z,101766.69
2023-02-19T02:38:53.912Z,101775.13
2023-02-19T02:41:22.739Z,101777.09
2023-02-19T02:43:51.009Z,101775.66
2023-02-19T02:49:23.952Z,101774.34
2023-02-19T02:55:18.011Z,101792.84
2023-02-19T02:57:50.553Z,101794.13
2023-02-19T03:00:19.986Z,101794.06
2023-02-19T03:02:48.592Z,101800.41
2023-02-19T03:05:48.585Z,101806.25
2023-02-19T03:08:47.828Z,101805.88
2023-02-19T03:11:49.846Z,101800.50
2023-02-19T03:17:17.585Z,101802.84
2023-02-19T03:20:18.777Z,101818.38
2023-02-19T03:22:59.363Z,101803.66
2023-02-19T03:25:50.559Z,101804.28
2023-02-19T03:28:49.558Z,101801.03
2023-02-19T03:31:22.103Z,101802.13
2023-02-19T03:33:58.728Z,101798.66
2023-02-19T03:42:19.642Z,101794.75
2023-02-19T03:45:03.768Z,101803.38
2023-02-19T03:47:50.910Z,101817.09
2023-02-19T03:51:18.402Z,101820.00
2023-02-19T03:54:19.616Z,101848.78
2023-02-19T03:57:18.402Z,101850.97
2023-02-19T04:00:29.701Z,101838.22
2023-02-19T04:03:29.707Z,101829.97
2023-02-19T04:06:20.526Z,101831.16
2023-02-19T04:09:31.561Z,101832.00
2023-02-19T04:11:59.766Z,101842.13
2023-02-19T04:18:09.133Z,101853.63
2023-02-19T04:20:49.920Z,101854.31
2023-02-19T04:23:24.736Z,101860.50
2023-02-19T04:26:31.408Z,101862.25
2023-02-19T04:29:00.316Z,101862.94
2023-02-19T04:31:31.347Z,101861.69
2023-02-19T04:34:20.621Z,101869.25
2023-02-19T04:36:50.204Z,101869.41
2023-02-19T04:41:52.901Z,101880.00
2023-02-19T04:44:21.498Z,101887.34
2023-02-19T04:46:49.858Z,101891.50
2023-02-19T04:49:21.138Z,101895.13
2023-02-19T04:54:19.719Z,101905.59
2023-02-19T04:56:51.763Z,101910.63
2023-02-19T04:59:20.354Z,101915.19
2023-02-19T05:01:51.831Z,101909.47
2023-02-19T05:04:19.943Z,101908.72
2023-02-19T05:06:51.940Z,101921.94
2023-02-19T05:09:20.332Z,101927.56
2023-02-19T05:11:51.704Z,101926.25
2023-02-19T05:14:21.406Z,101926.69
2023-02-19T05:16:49.838Z,101926.38
2023-02-19T05:19:21.304Z,101932.22
2023-02-19T05:21:49.223Z,101947.28
2023-02-19T05:24:17.757Z,101948.81
2023-02-19T05:26:52.688Z,101952.28
2023-02-19T05:29:21.089Z,101958.72
2023-02-19T05:31:50.129Z,101949.41
2023-02-19T05:34:21.637Z,101959.59
2023-02-19T05:36:49.733Z,101956.44
2023-02-19T05:39:50.814Z,101963.75
2023-02-19T05:42:22.489Z,101968.78
2023-02-19T05:47:52.530Z,101978.25
2023-02-19T05:50:53.555Z,101984.88
2023-02-19T05:53:22.197Z,101985.47
2023-02-19T05:58:51.136Z,101984.03
2023-02-19T06:04:47.686Z,101983.94
2023-02-19T06:07:51.407Z,101967.00
2023-02-19T06:15:50.579Z,101982.44
2023-02-19T06:27:20.366Z,101979.53
2023-02-19T06:29:55.072Z,101982.03
2023-02-19T06:32:50.797Z,101979.31
2023-02-19T06:35:50.086Z,101982.97
2023-02-19T06:38:20.551Z,101981.97
2023-02-19T06:40:50.807Z,101978.56
2023-02-19T06:46:50.696Z,101979.16
2023-02-19T06:52:04.568Z,101979.72
2023-02-19T06:54:50.715Z,101975.69
2023-02-19T07:00:49.654Z,101977.72
2023-02-19T07:03:17.985Z,101977.38
2023-02-19T07:05:53.022Z,101972.97
2023-02-19T07:14:18.468Z,101970.16
2023-02-19T07:16:53.226Z,101972.41
2023-02-19T07:19:51.698Z,101977.16
2023-02-19T07:22:19.937Z,101971.34
2023-02-19T07:24:51.815Z,101972.31
2023-02-19T07:27:20.476Z,101965.53
2023-02-19T07:29:51.763Z,101970.47
2023-02-19T07:32:20.038Z,101969.03
2023-02-19T07:34:51.088Z,101971.88
2023-02-19T07:43:22.602Z,101940.03
2023-02-19T07:45:51.667Z,101932.03
2023-02-19T07:48:49.551Z,101932.78
2023-02-19T07:54:22.591Z,101933.38
2023-02-19T07:56:50.977Z,101932.97
2023-02-19T08:02:50.681Z,101940.34
2023-02-19T08:05:20.734Z,101957.81
2023-02-19T08:07:51.850Z,101967.97
2023-02-19T08:13:54.516Z,101963.59
2023-02-19T08:16:36.711Z,101961.28
2023-02-19T08:19:19.445Z,101949.91
2023-02-19T08:21:53.635Z,101957.13
2023-02-19T08:24:22.101Z,101945.63
2023-02-19T08:26:50.804Z,101942.56
2023-02-19T08:29:20.086Z,101929.41
2023-02-19T08:31:54.153Z,101934.81
2023-02-19T08:34:22.497Z,101932.78
2023-02-19T08:36:50.799Z,101942.16
2023-02-19T08:39:22.230Z,101954.41
2023-02-19T08:41:58.294Z,101959.56
2023-02-19T08:44:49.839Z,101964.41
2023-02-19T08:47:21.084Z,101974.44
2023-02-19T08:49:50.779Z,101980.78
2023-02-19T08:52:22.226Z,101982.63
2023-02-19T08:54:50.622Z,101981.56
2023-02-19T08:57:22.028Z,101982.63
2023-02-19T08:59:50.391Z,101999.22
2023-02-19T09:02:21.651Z,102000.88
2023-02-19T09:04:58.090Z,101989.66
2023-02-19T09:07:51.004Z,101993.06
2023-02-19T09:10:20.788Z,101991.56
2023-02-19T09:15:19.365Z,101986.50
2023-02-19T09:17:54.442Z,101981.88
2023-02-19T09:20:22.846Z,101987.88
2023-02-19T09:22:51.184Z,101983.97
2023-02-19T09:25:21.939Z,101989.66
2023-02-19T09:27:55.103Z,101973.22
2023-02-19T09:30:23.619Z,101977.00
2023-02-19T09:32:52.197Z,101980.69
2023-02-19T09:35:20.485Z,101985.25
2023-02-19T09:37:52.095Z,101994.22
2023-02-19T09:40:23.345Z,101987.47
2023-02-19T09:42:52.924Z,101983.19
2023-02-19T09:45:48.451Z,101976.13
2023-02-19T09:48:16.722Z,101980.56
2023-02-19T09:50:52.987Z,101977.09
2023-02-19T09:53:49.942Z,101978.94
2023-02-19T09:56:21.818Z,101983.53
2023-02-19T09:58:56.129Z,101981.88
2023-02-19T10:01:50.934Z,101998.56
2023-02-19T10:04:22.079Z,101996.91
2023-02-19T10:06:52.458Z,101985.63
2023-02-19T10:09:50.157Z,101978.66
2023-02-19T10:12:55.840Z,101976.88
2023-02-19T10:15:51.289Z,101988.38
2023-02-19T10:21:07.139Z,101984.84
2023-02-19T10:23:55.460Z,101974.28
2023-02-19T10:26:24.875Z,101975.13
2023-02-19T10:28:55.002Z,101973.34
2023-02-19T10:31:40.169Z,101958.53
2023-02-19T10:34:24.011Z,101943.78
2023-02-19T10:36:54.048Z,101942.34
2023-02-19T10:39:40.982Z,101950.38
2023-02-19T10:42:24.545Z,101927.59
2023-02-19T10:47:24.560Z,101932.19
2023-02-19T10:49:56.559Z,101939.31
2023-02-19T10:52:55.649Z,101931.38
2023-02-19T10:56:02.459Z,101935.03
2023-02-19T10:58:51.143Z,101936.22
2023-02-19T11:01:27.868Z,101932.75
2023-02-19T11:04:21.277Z,101931.75
2023-02-19T11:06:49.760Z,101932.69
2023-02-19T11:09:22.728Z,101930.91
2023-02-19T11:11:55.167Z,101923.84
2023-02-19T11:14:26.109Z,101929.13
2023-02-19T11:17:25.704Z,101928.22
2023-02-19T11:23:30.061Z,101921.41
2023-02-19T11:30:20.768Z,101925.19
2023-02-19T11:33:20.657Z,101925.34
2023-02-19T11:36:20.587Z,101923.69
2023-02-19T11:39:18.196Z,101922.13
2023-02-19T11:42:04.805Z,101921.25
2023-02-19T11:45:21.035Z,101920.41
2023-02-19T11:48:28.128Z,101928.56
2023-02-19T11:55:21.366Z,101935.75
2023-02-19T11:58:23.225Z,101946.28
2023-02-19T12:04:24.128Z,101955.16
2023-02-19T12:07:30.952Z,101950.75
2023-02-19T12:14:20.256Z,101959.75
2023-02-19T12:17:23.145Z,101957.19
2023-02-19T12:20:18.186Z,101952.72
2023-02-19T12:23:24.865Z,101959.75
2023-02-19T12:27:10.928Z,101953.66
2023-02-19T12:30:23.348Z,101945.78
2023-02-19T12:37:18.055Z,101953.88
2023-02-19T12:40:18.556Z,101953.09
2023-02-19T12:43:24.792Z,101954.03
2023-02-19T12:46:18.348Z,101954.09
2023-02-19T12:49:27.617Z,101957.63
2023-02-19T12:52:19.090Z,101956.84
2023-02-19T12:55:21.315Z,101953.22
2023-02-19T12:58:18.018Z,101956.78
2023-02-19T13:01:21.205Z,101955.03
2023-02-19T13:07:18.197Z,101959.59
2023-02-19T13:09:52.736Z,101957.97
2023-02-19T13:15:16.064Z,101957.19
2023-02-19T13:18:21.197Z,101965.13
2023-02-19T13:20:52.563Z,101966.94
2023-02-19T13:23:47.857Z,101967.84
2023-02-19T13:27:21.274Z,101964.34
2023-02-19T13:30:22.476Z,101966.97
2023-02-19T13:33:16.224Z,101966.19
2023-02-19T13:36:19.352Z,101964.44
2023-02-19T13:39:11.449Z,101970.66
2023-02-19T13:42:18.861Z,101959.38
2023-02-19T13:44:58.572Z,101960.41
2023-02-19T13:51:08.988Z,101978.94
2023-02-19T13:54:16.864Z,101979.78
2023-02-19T13:56:48.603Z,101981.59
2023-02-19T14:00:19.446Z,101981.53
2023-02-19T14:03:19.591Z,101984.22
2023-02-19T14:06:46.367Z,101976.38
2023-02-19T14:09:49.025Z,101976.50
2023-02-19T14:12:23.271Z,101979.19
2023-02-19T14:15:26.640Z,101979.09
2023-02-19T14:18:22.349Z,101977.31
2023-02-19T14:20:55.514Z,101974.66
2023-02-19T14:23:27.081Z,101984.25
2023-02-19T14:26:17.101Z,101981.72
2023-02-19T14:28:50.157Z,101986.22
2023-02-19T14:31:48.428Z,101990.72
2023-02-19T14:34:24.418Z,102003.09
2023-02-19T14:37:27.445Z,101989.06
2023-02-19T14:40:46.791Z,101993.44
2023-02-19T14:43:24.778Z,101986.34
2023-02-19T14:46:44.874Z,101986.31
2023-02-19T14:49:28.628Z,101988.97
2023-02-19T14:52:48.382Z,101989.78
2023-02-19T15:02:22.540Z,102001.41
2023-02-19T15:05:25.409Z,102012.91
2023-02-19T15:08:19.921Z,102000.59
2023-02-19T15:10:49.271Z,101999.47
2023-02-19T15:15:48.087Z,102007.56
2023-02-19T15:18:24.008Z,102009.97
2023-02-19T15:21:21.252Z,102013.59
2023-02-19T15:23:49.773Z,102021.47
2023-02-19T15:26:24.120Z,102024.13
2023-02-19T15:29:18.248Z,102021.47
2023-02-19T15:31:53.426Z,102017.03
2023-02-19T15:36:52.081Z,102023.34
2023-02-19T15:42:22.616Z,102020.78
2023-02-19T15:45:26.370Z,102025.84
2023-02-19T15:48:20.477Z,102018.63
2023-02-19T15:51:22.918Z,102022.59
2023-02-19T15:54:31.499Z,102027.94
2023-02-19T15:57:26.752Z,102032.31
2023-02-19T16:00:52.529Z,102031.53
2023-02-19T16:03:26.612Z,102025.81
2023-02-19T16:06:06.727Z,102036.81
2023-02-19T16:12:52.377Z,102038.22
2023-02-19T16:22:46.878Z,102061.44
2023-02-19T16:25:46.994Z,102067.19
2023-02-19T16:28:45.798Z,102069.56
2023-02-19T16:31:47.787Z,102070.50
2023-02-19T16:34:47.812Z,102066.34
2023-02-19T16:37:53.122Z,102068.28
2023-02-19T16:44:42.886Z,102068.91
2023-02-19T16:47:49.172Z,102065.88
2023-02-19T16:50:33.181Z,102067.38
2023-02-19T16:53:48.523Z,102072.53
2023-02-19T17:40:07.985Z,102062.44
2023-02-19T17:42:37.022Z,102066.31
2023-02-19T17:45:05.726Z,102061.06
2023-02-19T17:48:18.126Z,102060.97
2023-02-19T17:51:16.055Z,102066.91
2023-02-19T17:54:19.565Z,102073.59
2023-02-19T17:57:15.434Z,102070.53
2023-02-19T17:59:46.998Z,102067.88
2023-02-19T18:02:15.257Z,102066.13
2023-02-19T18:07:16.141Z,102067.41
2023-02-19T18:10:15.100Z,102066.72
2023-02-19T18:13:17.244Z,102070.00
2023-02-19T18:15:49.151Z,102069.84
2023-02-19T18:18:17.512Z,102076.31
2023-02-19T18:21:14.592Z,102083.28
2023-02-19T18:24:15.259Z,102072.41
2023-02-19T18:27:15.606Z,102071.09
2023-02-19T18:30:20.153Z,102057.84
2023-02-19T18:32:54.784Z,102057.59
2023-02-19T18:42:21.707Z,102065.69
2023-02-19T18:48:44.302Z,102057.94
2023-02-19T18:51:02.874Z,102056.13
2023-02-19T18:53:47.021Z,102046.84
2023-02-19T18:56:15.781Z,102056.97
2023-02-19T18:58:44.215Z,102053.84
2023-02-19T19:04:20.319Z,102046.09
2023-02-19T19:07:18.828Z,102042.34
2023-02-19T19:10:19.385Z,102045.22
2023-02-19T19:13:15.622Z,102036.84
2023-02-19T19:16:17.725Z,102043.09
2023-02-19T19:18:49.100Z,102039.72
2023-02-19T19:21:17.827Z,102038.50
2023-02-19T19:25:02.187Z,102034.00
2023-02-19T19:30:50.873Z,102026.97
2023-02-19T19:33:20.351Z,102022.47
2023-02-19T19:35:51.148Z,102028.47
2023-02-19T19:38:19.520Z,102023.91
2023-02-19T19:40:47.859Z,102035.03
2023-02-19T19:43:16.124Z,102031.91
2023-02-19T19:45:50.198Z,102023.00
2023-02-19T19:48:18.575Z,102033.75
2023-02-19T19:50:49.424Z,102026.03
2023-02-19T19:53:18.150Z,102022.41
2023-02-19T19:55:47.644Z,102022.59
2023-02-19T19:58:23.609Z,102011.53
2023-02-19T20:00:55.501Z,102016.47
2023-02-19T20:03:24.015Z,102003.31
2023-02-19T20:05:52.407Z,101998.72
2023-02-19T20:08:20.907Z,101992.22
2023-02-19T20:10:58.088Z,101981.31
2023-02-19T20:13:37.388Z,101980.53
2023-02-19T20:16:06.980Z,101961.53
2023-02-19T20:19:17.660Z,101954.34
2023-02-19T20:25:13.464Z,101942.63
2023-02-19T20:27:49.870Z,101929.00
2023-02-19T20:32:48.408Z,101920.44
2023-02-19T20:35:18.558Z,101921.50
2023-02-19T20:37:54.335Z,101912.47
2023-02-19T20:40:31.315Z,101914.94
2023-02-19T20:45:40.403Z,101913.38
2023-02-19T20:48:19.404Z,101903.94
2023-02-19T20:50:48.397Z,101904.56
2023-02-19T20:53:19.191Z,101903.59
2023-02-19T20:55:47.451Z,101900.22
2023-02-19T20:58:15.858Z,101894.84
2023-02-19T21:00:47.261Z,101884.50
2023-02-19T21:03:16.062Z,101885.13
2023-02-19T21:05:45.830Z,101879.38
2023-02-19T21:08:15.011Z,101868.22
2023-02-19T21:10:43.308Z,101869.50
2023-02-19T21:13:12.038Z,101867.59
2023-02-19T21:15:46.509Z,101857.66
2023-02-19T21:18:18.422Z,101850.78
2023-02-19T21:20:46.844Z,101854.38
2023-02-19T21:23:15.468Z,101853.78
2023-02-19T21:25:46.405Z,101847.69
2023-02-19T21:28:20.986Z,101842.66
2023-02-19T21:30:49.884Z,101843.69
2023-02-19T21:33:18.784Z,101837.72
2023-02-19T21:35:50.141Z,101835.56
2023-02-19T21:38:18.489Z,101836.59
2023-02-19T21:43:31.270Z,101826.28
2023-02-19T21:46:09.232Z,101815.22
2023-02-19T21:49:20.795Z,101820.41
2023-02-19T21:52:27.036Z,101806.09
2023-02-19T21:55:20.088Z,101805.66
2023-02-19T21:58:21.809Z,101798.13
2023-02-19T22:13:49.378Z,101806.22
2023-02-19T22:16:21.232Z,101807.06
2023-02-19T22:19:21.422Z,101796.25
2023-02-19T22:21:51.415Z,101795.28
2023-02-19T22:24:22.250Z,101782.13
2023-02-19T22:26:56.434Z,101783.13
2023-02-19T22:29:25.204Z,101784.00
2023-02-19T22:35:20.296Z,101782.44
2023-02-19T22:37:53.401Z,101789.13
2023-02-19T22:40:21.678Z,101791.84
2023-02-19T22:42:51.900Z,101785.75
2023-02-19T22:45:20.197Z,101792.44
2023-02-19T22:47:48.469Z,101787.56
2023-02-19T22:50:23.301Z,101780.00
2023-02-19T22:52:55.383Z,101787.00
2023-02-19T22:55:23.948Z,101782.97
2023-02-19T22:57:52.297Z,101775.44
2023-02-19T23:00:22.444Z,101774.16
2023-02-19T23:02:50.825Z,101779.69
2023-02-19T23:05:19.107Z,101773.81
2023-02-19T23:07:47.679Z,101774.22
2023-02-19T23:10:16.063Z,101777.34
2023-02-19T23:12:44.386Z,101779.47
2023-02-19T23:15:12.986Z,101775.50
2023-02-19T23:17:42.596Z,101774.84
2023-02-19T23:20:11.181Z,101767.97
2023-02-19T23:22:39.703Z,101770.97
2023-02-19T23:25:08.594Z,101773.03
2023-02-19T23:27:36.841Z,101766.16
2023-02-19T23:30:05.682Z,101770.84
2023-02-19T23:32:34.115Z,101770.00
2023-02-19T23:35:05.475Z,101774.69
2023-02-19T23:37:33.852Z,101777.47
2023-02-19T23:40:05.076Z,101777.66
2023-02-19T23:42:32.992Z,101767.38
2023-02-19T23:45:01.324Z,101771.88
2023-02-19T23:47:30.703Z,101767.38
2023-02-19T23:49:59.075Z,101767.38
2023-02-19T23:52:27.365Z,101768.34
2023-02-19T23:54:57.458Z,101762.97
2023-02-19T23:57:25.784Z,101768.34
2023-02-19T23:59:54.359Z,101766.84
